sensor_id;sensor_type;location;lat;lon;timestamp;temperature;humidity
68274;SHT30;55104;47.356;19.448;2023-04-24T00:01:43;11.99;68.01
68274;SHT30;55104;47.356;19.448;2023-04-24T00:04:46;12.02;68.22
68274;SHT30;55104;47.356;19.448;2023-04-24T00:07:48;12.10;68.19
68274;SHT30;55104;47.356;19.448;2023-04-24T00:10:50;12.02;68.33
68274;SHT30;55104;47.356;19.448;2023-04-24T00:13:53;12.02;68.22
68274;SHT30;55104;47.356;19.448;2023-04-24T00:16:56;11.99;68.60
68274;SHT30;55104;47.356;19.448;2023-04-24T00:19:58;11.94;68.90
68274;SHT30;55104;47.356;19.448;2023-04-24T00:23:00;11.98;68.93
68274;SHT30;55104;47.356;19.448;2023-04-24T00:26:02;11.97;68.81
68274;SHT30;55104;47.356;19.448;2023-04-24T00:29:04;12.01;69.07
68274;SHT30;55104;47.356;19.448;2023-04-24T00:32:06;11.98;68.89
68274;SHT30;55104;47.356;19.448;2023-04-24T00:35:08;12.02;68.87
68274;SHT30;55104;47.356;19.448;2023-04-24T00:38:11;12.10;69.00
68274;SHT30;55104;47.356;19.448;2023-04-24T00:41:13;12.15;69.06
68274;SHT30;55104;47.356;19.448;2023-04-24T00:44:15;12.13;69.11
68274;SHT30;55104;47.356;19.448;2023-04-24T00:47:18;12.22;69.17
68274;SHT30;55104;47.356;19.448;2023-04-24T00:50:26;12.25;68.79
68274;SHT30;55104;47.356;19.448;2023-04-24T00:53:28;12.26;68.84
68274;SHT30;55104;47.356;19.448;2023-04-24T00:56:30;12.24;69.10
68274;SHT30;55104;47.356;19.448;2023-04-24T00:59:32;12.20;69.13
68274;SHT30;55104;47.356;19.448;2023-04-24T01:02:35;12.18;69.40
68274;SHT30;55104;47.356;19.448;2023-04-24T01:05:37;12.18;69.24
68274;SHT30;55104;47.356;19.448;2023-04-24T01:08:41;12.20;69.28
68274;SHT30;55104;47.356;19.448;2023-04-24T01:11:43;12.20;69.33
68274;SHT30;55104;47.356;19.448;2023-04-24T01:14:46;12.24;69.48
68274;SHT30;55104;47.356;19.448;2023-04-24T01:17:50;12.28;69.59
68274;SHT30;55104;47.356;19.448;2023-04-24T01:20:53;12.31;69.50
68274;SHT30;55104;47.356;19.448;2023-04-24T01:23:58;12.35;69.28
68274;SHT30;55104;47.356;19.448;2023-04-24T01:27:00;12.33;69.23
68274;SHT30;55104;47.356;19.448;2023-04-24T01:30:04;12.35;69.02
68274;SHT30;55104;47.356;19.448;2023-04-24T01:33:06;12.35;69.00
68274;SHT30;55104;47.356;19.448;2023-04-24T01:36:10;12.28;69.34
68274;SHT30;55104;47.356;19.448;2023-04-24T01:39:13;12.26;68.98
68274;SHT30;55104;47.356;19.448;2023-04-24T01:42:16;12.25;69.28
68274;SHT30;55104;47.356;19.448;2023-04-24T01:45:21;12.21;69.56
68274;SHT30;55104;47.356;19.448;2023-04-24T01:48:23;12.18;69.75
68274;SHT30;55104;47.356;19.448;2023-04-24T01:51:26;12.13;69.90
68274;SHT30;55104;47.356;19.448;2023-04-24T01:54:28;12.13;70.31
68274;SHT30;55104;47.356;19.448;2023-04-24T01:57:31;12.17;70.41
68274;SHT30;55104;47.356;19.448;2023-04-24T02:00:34;12.21;70.22
68274;SHT30;55104;47.356;19.448;2023-04-24T02:03:36;12.25;70.27
68274;SHT30;55104;47.356;19.448;2023-04-24T02:06:38;12.26;72.36
68274;SHT30;55104;47.356;19.448;2023-04-24T02:09:41;12.21;74.79
68274;SHT30;55104;47.356;19.448;2023-04-24T02:12:43;12.24;75.43
68274;SHT30;55104;47.356;19.448;2023-04-24T02:15:45;12.13;76.99
68274;SHT30;55104;47.356;19.448;2023-04-24T02:18:47;11.99;78.73
68274;SHT30;55104;47.356;19.448;2023-04-24T02:21:49;11.86;79.12
68274;SHT30;55104;47.356;19.448;2023-04-24T02:24:52;11.78;81.48
68274;SHT30;55104;47.356;19.448;2023-04-24T02:27:54;11.76;81.91
68274;SHT30;55104;47.356;19.448;2023-04-24T02:30:56;11.66;83.62
68274;SHT30;55104;47.356;19.448;2023-04-24T02:33:58;11.55;85.33
68274;SHT30;55104;47.356;19.448;2023-04-24T02:37:00;11.55;86.17
68274;SHT30;55104;47.356;19.448;2023-04-24T02:40:02;11.46;86.52
68274;SHT30;55104;47.356;19.448;2023-04-24T02:43:05;11.50;86.90
68274;SHT30;55104;47.356;19.448;2023-04-24T02:46:07;11.49;87.05
68274;SHT30;55104;47.356;19.448;2023-04-24T02:49:09;11.58;86.83
68274;SHT30;55104;47.356;19.448;2023-04-24T02:52:11;11.52;86.92
68274;SHT30;55104;47.356;19.448;2023-04-24T02:55:13;11.52;87.30
68274;SHT30;55104;47.356;19.448;2023-04-24T02:58:15;11.47;86.96
68274;SHT30;55104;47.356;19.448;2023-04-24T03:01:17;11.47;86.92
68274;SHT30;55104;47.356;19.448;2023-04-24T03:04:21;11.53;86.47
68274;SHT30;55104;47.356;19.448;2023-04-24T03:07:24;11.52;86.37
68274;SHT30;55104;47.356;19.448;2023-04-24T03:10:26;11.55;86.51
68274;SHT30;55104;47.356;19.448;2023-04-24T03:13:28;11.56;86.13
68274;SHT30;55104;47.356;19.448;2023-04-24T03:16:30;11.62;86.56
68274;SHT30;55104;47.356;19.448;2023-04-24T03:19:32;11.63;86.81
68274;SHT30;55104;47.356;19.448;2023-04-24T03:22:39;11.60;86.97
68274;SHT30;55104;47.356;19.448;2023-04-24T03:25:42;11.56;87.71
68274;SHT30;55104;47.356;19.448;2023-04-24T03:28:46;11.56;87.72
68274;SHT30;55104;47.356;19.448;2023-04-24T03:31:48;11.62;87.39
68274;SHT30;55104;47.356;19.448;2023-04-24T03:34:51;11.58;87.84
68274;SHT30;55104;47.356;19.448;2023-04-24T03:37:54;11.59;87.76
68274;SHT30;55104;47.356;19.448;2023-04-24T03:41:19;11.62;88.00
68274;SHT30;55104;47.356;19.448;2023-04-24T03:44:28;11.58;87.92
68274;SHT30;55104;47.356;19.448;2023-04-24T03:47:31;11.63;87.57
68274;SHT30;55104;47.356;19.448;2023-04-24T03:50:39;11.62;87.90
68274;SHT30;55104;47.356;19.448;2023-04-24T03:53:45;11.70;87.70
68274;SHT30;55104;47.356;19.448;2023-04-24T03:56:50;11.67;86.82
68274;SHT30;55104;47.356;19.448;2023-04-24T03:59:52;11.66;85.95
68274;SHT30;55104;47.356;19.448;2023-04-24T04:02:55;11.67;85.38
68274;SHT30;55104;47.356;19.448;2023-04-24T04:05:58;11.67;84.65
68274;SHT30;55104;47.356;19.448;2023-04-24T04:09:00;11.73;84.45
68274;SHT30;55104;47.356;19.448;2023-04-24T04:12:03;11.77;83.93
68274;SHT30;55104;47.356;19.448;2023-04-24T04:15:07;11.77;83.31
68274;SHT30;55104;47.356;19.448;2023-04-24T04:18:10;11.78;83.34
68274;SHT30;55104;47.356;19.448;2023-04-24T04:21:12;11.74;83.74
68274;SHT30;55104;47.356;19.448;2023-04-24T04:24:15;11.69;84.58
68274;SHT30;55104;47.356;19.448;2023-04-24T04:27:19;11.73;84.58
68274;SHT30;55104;47.356;19.448;2023-04-24T04:30:30;11.67;84.95
68274;SHT30;55104;47.356;19.448;2023-04-24T04:33:37;11.65;85.83
68274;SHT30;55104;47.356;19.448;2023-04-24T04:36:42;11.55;85.81
68274;SHT30;55104;47.356;19.448;2023-04-24T04:40:13;11.56;85.17
68274;SHT30;55104;47.356;19.448;2023-04-24T04:43:24;11.53;84.97
68274;SHT30;55104;47.356;19.448;2023-04-24T04:46:28;11.52;85.13
68274;SHT30;55104;47.356;19.448;2023-04-24T04:49:41;11.43;85.61
68274;SHT30;55104;47.356;19.448;2023-04-24T04:52:54;11.46;85.36
68274;SHT30;55104;47.356;19.448;2023-04-24T04:56:03;11.35;85.82
68274;SHT30;55104;47.356;19.448;2023-04-24T04:59:12;11.25;86.93
68274;SHT30;55104;47.356;19.448;2023-04-24T05:02:15;11.29;86.90
68274;SHT30;55104;47.356;19.448;2023-04-24T05:05:18;11.35;87.21
68274;SHT30;55104;47.356;19.448;2023-04-24T05:08:20;11.28;86.86
68274;SHT30;55104;47.356;19.448;2023-04-24T05:11:29;11.18;87.04
68274;SHT30;55104;47.356;19.448;2023-04-24T05:14:32;11.16;87.18
68274;SHT30;55104;47.356;19.448;2023-04-24T05:17:35;11.10;87.44
68274;SHT30;55104;47.356;19.448;2023-04-24T05:20:37;11.03;87.98
68274;SHT30;55104;47.356;19.448;2023-04-24T05:23:39;10.88;87.77
68274;SHT30;55104;47.356;19.448;2023-04-24T05:26:41;10.87;88.72
68274;SHT30;55104;47.356;19.448;2023-04-24T05:29:44;10.85;88.47
68274;SHT30;55104;47.356;19.448;2023-04-24T05:32:47;10.83;89.12
68274;SHT30;55104;47.356;19.448;2023-04-24T05:35:49;10.83;89.32
68274;SHT30;55104;47.356;19.448;2023-04-24T05:38:52;10.91;89.23
68274;SHT30;55104;47.356;19.448;2023-04-24T05:41:54;10.94;88.77
68274;SHT30;55104;47.356;19.448;2023-04-24T05:44:59;11.03;88.20
68274;SHT30;55104;47.356;19.448;2023-04-24T05:48:02;11.12;88.55
68274;SHT30;55104;47.356;19.448;2023-04-24T05:51:05;11.21;88.13
68274;SHT30;55104;47.356;19.448;2023-04-24T05:54:07;11.22;87.93
68274;SHT30;55104;47.356;19.448;2023-04-24T05:57:09;11.36;88.27
68274;SHT30;55104;47.356;19.448;2023-04-24T06:00:24;11.55;88.21
68274;SHT30;55104;47.356;19.448;2023-04-24T06:03:34;11.80;87.86
68274;SHT30;55104;47.356;19.448;2023-04-24T06:06:37;11.97;87.10
68274;SHT30;55104;47.356;19.448;2023-04-24T06:09:40;12.04;86.75
68274;SHT30;55104;47.356;19.448;2023-04-24T06:12:43;12.10;86.78
68274;SHT30;55104;47.356;19.448;2023-04-24T06:15:50;12.14;86.32
68274;SHT30;55104;47.356;19.448;2023-04-24T06:19:02;12.14;86.49
68274;SHT30;55104;47.356;19.448;2023-04-24T06:22:04;12.04;87.16
68274;SHT30;55104;47.356;19.448;2023-04-24T06:25:07;11.99;87.61
68274;SHT30;55104;47.356;19.448;2023-04-24T06:28:09;11.99;87.69
68274;SHT30;55104;47.356;19.448;2023-04-24T06:31:11;12.10;87.73
68274;SHT30;55104;47.356;19.448;2023-04-24T06:34:13;12.24;87.29
68274;SHT30;55104;47.356;19.448;2023-04-24T06:37:15;12.31;86.30
68274;SHT30;55104;47.356;19.448;2023-04-24T06:40:18;12.48;86.21
68274;SHT30;55104;47.356;19.448;2023-04-24T06:43:23;12.55;85.46
68274;SHT30;55104;47.356;19.448;2023-04-24T06:46:25;12.56;85.71
68274;SHT30;55104;47.356;19.448;2023-04-24T06:49:29;12.53;85.45
68274;SHT30;55104;47.356;19.448;2023-04-24T06:52:31;12.55;84.98
68274;SHT30;55104;47.356;19.448;2023-04-24T06:55:35;12.67;85.21
68274;SHT30;55104;47.356;19.448;2023-04-24T06:58:37;12.77;84.79
68274;SHT30;55104;47.356;19.448;2023-04-24T07:01:40;13.14;84.53
68274;SHT30;55104;47.356;19.448;2023-04-24T07:04:42;13.49;84.00
68274;SHT30;55104;47.356;19.448;2023-04-24T07:07:45;13.98;82.67
68274;SHT30;55104;47.356;19.448;2023-04-24T07:10:49;14.08;81.75
68274;SHT30;55104;47.356;19.448;2023-04-24T07:13:51;14.35;81.23
68274;SHT30;55104;47.356;19.448;2023-04-24T07:16:53;14.56;79.93
68274;SHT30;55104;47.356;19.448;2023-04-24T07:19:55;14.72;79.77
68274;SHT30;55104;47.356;19.448;2023-04-24T07:22:57;14.63;80.18
68274;SHT30;55104;47.356;19.448;2023-04-24T07:25:59;14.49;80.15
68274;SHT30;55104;47.356;19.448;2023-04-24T07:29:01;14.29;80.61
68274;SHT30;55104;47.356;19.448;2023-04-24T07:32:03;14.04;81.27
68274;SHT30;55104;47.356;19.448;2023-04-24T07:35:06;13.87;82.71
68274;SHT30;55104;47.356;19.448;2023-04-24T07:38:08;13.80;82.95
68274;SHT30;55104;47.356;19.448;2023-04-24T07:41:10;13.74;84.02
68274;SHT30;55104;47.356;19.448;2023-04-24T07:44:12;13.63;85.34
68274;SHT30;55104;47.356;19.448;2023-04-24T07:47:15;13.49;86.29
68274;SHT30;55104;47.356;19.448;2023-04-24T07:50:17;13.55;86.70
68274;SHT30;55104;47.356;19.448;2023-04-24T07:53:19;13.51;86.94
68274;SHT30;55104;47.356;19.448;2023-04-24T07:56:21;13.69;86.37
68274;SHT30;55104;47.356;19.448;2023-04-24T07:59:23;13.80;86.73
68274;SHT30;55104;47.356;19.448;2023-04-24T08:02:25;14.00;86.29
68274;SHT30;55104;47.356;19.448;2023-04-24T08:05:29;14.11;85.30
68274;SHT30;55104;47.356;19.448;2023-04-24T08:08:31;14.11;85.46
68274;SHT30;55104;47.356;19.448;2023-04-24T08:11:34;14.08;85.54
68274;SHT30;55104;47.356;19.448;2023-04-24T08:14:36;14.01;86.52
68274;SHT30;55104;47.356;19.448;2023-04-24T08:17:38;14.03;86.61
68274;SHT30;55104;47.356;19.448;2023-04-24T08:20:40;14.17;85.78
68274;SHT30;55104;47.356;19.448;2023-04-24T08:23:43;14.26;86.36
68274;SHT30;55104;47.356;19.448;2023-04-24T08:26:45;14.25;85.88
68274;SHT30;55104;47.356;19.448;2023-04-24T08:29:47;14.36;85.38
68274;SHT30;55104;47.356;19.448;2023-04-24T08:32:49;14.21;85.56
68274;SHT30;55104;47.356;19.448;2023-04-24T08:35:52;14.13;85.46
68274;SHT30;55104;47.356;19.448;2023-04-24T08:38:54;14.32;85.26
68274;SHT30;55104;47.356;19.448;2023-04-24T08:41:56;14.51;84.41
68274;SHT30;55104;47.356;19.448;2023-04-24T08:44:59;14.59;84.90
68274;SHT30;55104;47.356;19.448;2023-04-24T08:48:02;14.69;84.50
68274;SHT30;55104;47.356;19.448;2023-04-24T08:51:06;14.79;84.07
68274;SHT30;55104;47.356;19.448;2023-04-24T08:54:09;14.79;83.85
68274;SHT30;55104;47.356;19.448;2023-04-24T08:57:14;14.89;83.94
68274;SHT30;55104;47.356;19.448;2023-04-24T09:00:16;15.04;83.49
68274;SHT30;55104;47.356;19.448;2023-04-24T09:03:20;15.23;82.96
68274;SHT30;55104;47.356;19.448;2023-04-24T09:06:23;15.34;82.29
68274;SHT30;55104;47.356;19.448;2023-04-24T09:09:25;15.78;81.68
68274;SHT30;55104;47.356;19.448;2023-04-24T09:12:27;16.35;80.64
68274;SHT30;55104;47.356;19.448;2023-04-24T09:15:31;16.37;78.94
68274;SHT30;55104;47.356;19.448;2023-04-24T09:18:34;16.61;78.52
68274;SHT30;55104;47.356;19.448;2023-04-24T09:21:37;16.79;78.41
68274;SHT30;55104;47.356;19.448;2023-04-24T09:24:39;17.21;77.99
68274;SHT30;55104;47.356;19.448;2023-04-24T09:27:43;17.48;76.82
68274;SHT30;55104;47.356;19.448;2023-04-24T09:31:11;17.64;74.07
68274;SHT30;55104;47.356;19.448;2023-04-24T09:34:13;17.76;74.83
68274;SHT30;55104;47.356;19.448;2023-04-24T09:37:27;17.96;74.13
68274;SHT30;55104;47.356;19.448;2023-04-24T09:40:34;18.07;72.98
68274;SHT30;55104;47.356;19.448;2023-04-24T09:43:36;17.97;72.00
68274;SHT30;55104;47.356;19.448;2023-04-24T09:46:38;18.09;72.28
68274;SHT30;55104;47.356;19.448;2023-04-24T09:49:40;18.23;71.42
68274;SHT30;55104;47.356;19.448;2023-04-24T09:52:55;18.28;70.77
68274;SHT30;55104;47.356;19.448;2023-04-24T09:56:08;18.33;71.00
68274;SHT30;55104;47.356;19.448;2023-04-24T09:59:11;18.47;69.60
68274;SHT30;55104;47.356;19.448;2023-04-24T10:02:20;18.79;67.77
68274;SHT30;55104;47.356;19.448;2023-04-24T10:05:32;19.23;68.34
68274;SHT30;55104;47.356;19.448;2023-04-24T10:08:36;19.54;65.93
68274;SHT30;55104;47.356;19.448;2023-04-24T10:11:44;19.35;64.40
68274;SHT30;55104;47.356;19.448;2023-04-24T10:14:50;19.35;64.58
68274;SHT30;55104;47.356;19.448;2023-04-24T10:17:52;19.38;62.17
68274;SHT30;55104;47.356;19.448;2023-04-24T10:20:56;19.31;62.89
68274;SHT30;55104;47.356;19.448;2023-04-24T10:23:58;19.24;62.27
68274;SHT30;55104;47.356;19.448;2023-04-24T10:27:02;19.37;63.55
68274;SHT30;55104;47.356;19.448;2023-04-24T10:30:05;19.40;63.43
68274;SHT30;55104;47.356;19.448;2023-04-24T10:33:08;19.47;62.63
68274;SHT30;55104;47.356;19.448;2023-04-24T10:36:12;19.44;62.40
68274;SHT30;55104;47.356;19.448;2023-04-24T10:39:16;19.41;62.49
68274;SHT30;55104;47.356;19.448;2023-04-24T10:42:18;19.35;62.50
68274;SHT30;55104;47.356;19.448;2023-04-24T10:45:22;19.75;62.56
68274;SHT30;55104;47.356;19.448;2023-04-24T10:48:26;19.75;62.53
68274;SHT30;55104;47.356;19.448;2023-04-24T10:54:49;20.19;61.44
68274;SHT30;55104;47.356;19.448;2023-04-24T10:58:04;20.30;61.19
68274;SHT30;55104;47.356;19.448;2023-04-24T11:01:06;20.21;59.30
68274;SHT30;55104;47.356;19.448;2023-04-24T11:04:10;19.99;60.60
68274;SHT30;55104;47.356;19.448;2023-04-24T11:07:12;20.00;60.22
68274;SHT30;55104;47.356;19.448;2023-04-24T11:10:26;20.08;59.87
68274;SHT30;55104;47.356;19.448;2023-04-24T11:16:57;20.26;59.17
68274;SHT30;55104;47.356;19.448;2023-04-24T11:20:07;20.23;59.22
68274;SHT30;55104;47.356;19.448;2023-04-24T11:23:36;20.08;60.04
68274;SHT30;55104;47.356;19.448;2023-04-24T11:26:38;20.40;61.01
68274;SHT30;55104;47.356;19.448;2023-04-24T11:33:04;20.84;58.92
68274;SHT30;55104;47.356;19.448;2023-04-24T11:36:06;20.99;57.48
68274;SHT30;55104;47.356;19.448;2023-04-24T11:39:09;21.06;58.70
68274;SHT30;55104;47.356;19.448;2023-04-24T11:42:15;21.31;57.25
68274;SHT30;55104;47.356;19.448;2023-04-24T11:48:20;21.06;59.84
68274;SHT30;55104;47.356;19.448;2023-04-24T11:51:26;20.44;57.91
68274;SHT30;55104;47.356;19.448;2023-04-24T11:54:37;20.20;58.78
68274;SHT30;55104;47.356;19.448;2023-04-24T11:57:40;20.20;58.45
68274;SHT30;55104;47.356;19.448;2023-04-24T12:00:56;20.26;59.58
68274;SHT30;55104;47.356;19.448;2023-04-24T12:04:01;20.47;60.35
68274;SHT30;55104;47.356;19.448;2023-04-24T12:07:04;20.69;59.64
68274;SHT30;55104;47.356;19.448;2023-04-24T12:10:07;20.55;58.91
68274;SHT30;55104;47.356;19.448;2023-04-24T12:13:09;20.30;59.07
68274;SHT30;55104;47.356;19.448;2023-04-24T12:16:13;19.97;59.85
68274;SHT30;55104;47.356;19.448;2023-04-24T12:19:21;19.79;60.72
68274;SHT30;55104;47.356;19.448;2023-04-24T12:22:23;19.97;60.94
68274;SHT30;55104;47.356;19.448;2023-04-24T12:25:27;20.23;59.74
68274;SHT30;55104;47.356;19.448;2023-04-24T12:28:36;20.24;60.49
68274;SHT30;55104;47.356;19.448;2023-04-24T12:31:39;20.27;60.80
68274;SHT30;55104;47.356;19.448;2023-04-24T12:34:43;19.71;61.86
68274;SHT30;55104;47.356;19.448;2023-04-24T12:37:45;19.57;62.78
68274;SHT30;55104;47.356;19.448;2023-04-24T12:41:02;19.57;63.50
68274;SHT30;55104;47.356;19.448;2023-04-24T12:44:10;19.19;63.79
68274;SHT30;55104;47.356;19.448;2023-04-24T12:47:12;18.95;64.56
68274;SHT30;55104;47.356;19.448;2023-04-24T12:50:15;18.66;64.72
68274;SHT30;55104;47.356;19.448;2023-04-24T12:53:17;18.49;64.87
68274;SHT30;55104;47.356;19.448;2023-04-24T12:56:19;18.37;65.87
68274;SHT30;55104;47.356;19.448;2023-04-24T12:59:22;18.21;65.67
68274;SHT30;55104;47.356;19.448;2023-04-24T13:02:25;18.13;66.36
68274;SHT30;55104;47.356;19.448;2023-04-24T13:05:28;17.79;67.16
68274;SHT30;55104;47.356;19.448;2023-04-24T13:08:30;17.68;67.82
68274;SHT30;55104;47.356;19.448;2023-04-24T13:11:32;17.37;69.18
68274;SHT30;55104;47.356;19.448;2023-04-24T13:14:35;17.20;69.81
68274;SHT30;55104;47.356;19.448;2023-04-24T13:17:37;17.02;71.46
68274;SHT30;55104;47.356;19.448;2023-04-24T13:20:40;16.97;71.48
68274;SHT30;55104;47.356;19.448;2023-04-24T13:23:43;16.84;71.32
68274;SHT30;55104;47.356;19.448;2023-04-24T13:26:45;16.86;71.06
68274;SHT30;55104;47.356;19.448;2023-04-24T13:29:47;16.86;70.50
68274;SHT30;55104;47.356;19.448;2023-04-24T13:32:50;16.89;70.84
68274;SHT30;55104;47.356;19.448;2023-04-24T13:35:52;16.84;71.34
68274;SHT30;55104;47.356;19.448;2023-04-24T13:38:54;16.99;71.51
68274;SHT30;55104;47.356;19.448;2023-04-24T13:41:57;16.72;72.05
68274;SHT30;55104;47.356;19.448;2023-04-24T13:44:59;16.75;72.71
68274;SHT30;55104;47.356;19.448;2023-04-24T13:48:04;16.61;73.17
68274;SHT30;55104;47.356;19.448;2023-04-24T13:51:06;16.55;73.16
68274;SHT30;55104;47.356;19.448;2023-04-24T13:54:08;16.54;73.95
68274;SHT30;55104;47.356;19.448;2023-04-24T13:57:11;16.42;74.33
68274;SHT30;55104;47.356;19.448;2023-04-24T14:00:13;16.27;75.46
68274;SHT30;55104;47.356;19.448;2023-04-24T14:03:15;16.28;75.93
68274;SHT30;55104;47.356;19.448;2023-04-24T14:06:19;16.18;76.47
68274;SHT30;55104;47.356;19.448;2023-04-24T14:09:21;16.14;78.25
68274;SHT30;55104;47.356;19.448;2023-04-24T14:12:23;15.94;78.84
68274;SHT30;55104;47.356;19.448;2023-04-24T14:15:25;15.94;80.12
68274;SHT30;55104;47.356;19.448;2023-04-24T14:18:27;15.96;80.09
68274;SHT30;55104;47.356;19.448;2023-04-24T14:21:29;15.99;80.63
68274;SHT30;55104;47.356;19.448;2023-04-24T14:24:32;15.93;81.58
68274;SHT30;55104;47.356;19.448;2023-04-24T14:27:34;15.91;82.04
68274;SHT30;55104;47.356;19.448;2023-04-24T14:30:37;15.82;81.28
68274;SHT30;55104;47.356;19.448;2023-04-24T14:33:39;15.73;82.64
68274;SHT30;55104;47.356;19.448;2023-04-24T14:36:41;15.58;82.69
68274;SHT30;55104;47.356;19.448;2023-04-24T14:39:44;15.59;82.77
68274;SHT30;55104;47.356;19.448;2023-04-24T14:43:01;15.42;83.79
68274;SHT30;55104;47.356;19.448;2023-04-24T14:46:04;15.34;85.61
68274;SHT30;55104;47.356;19.448;2023-04-24T14:49:07;15.16;85.11
68274;SHT30;55104;47.356;19.448;2023-04-24T14:52:11;15.03;85.46
68274;SHT30;55104;47.356;19.448;2023-04-24T14:55:16;15.10;85.16
68274;SHT30;55104;47.356;19.448;2023-04-24T14:58:19;15.16;85.41
68274;SHT30;55104;47.356;19.448;2023-04-24T15:01:21;15.10;85.94
68274;SHT30;55104;47.356;19.448;2023-04-24T15:04:24;15.01;85.94
68274;SHT30;55104;47.356;19.448;2023-04-24T15:07:30;14.96;86.25
68274;SHT30;55104;47.356;19.448;2023-04-24T15:10:33;14.98;86.13
68274;SHT30;55104;47.356;19.448;2023-04-24T15:13:35;14.98;86.62
68274;SHT30;55104;47.356;19.448;2023-04-24T15:16:37;14.91;86.98
68274;SHT30;55104;47.356;19.448;2023-04-24T15:19:39;14.87;87.54
68274;SHT30;55104;47.356;19.448;2023-04-24T15:22:42;14.76;88.43
68274;SHT30;55104;47.356;19.448;2023-04-24T15:25:44;14.81;87.94
68274;SHT30;55104;47.356;19.448;2023-04-24T15:28:47;14.79;86.79
68274;SHT30;55104;47.356;19.448;2023-04-24T15:31:49;14.77;87.72
68274;SHT30;55104;47.356;19.448;2023-04-24T15:34:52;14.73;88.05
68274;SHT30;55104;47.356;19.448;2023-04-24T15:38:08;14.73;88.07
68274;SHT30;55104;47.356;19.448;2023-04-24T15:41:11;14.66;88.68
68274;SHT30;55104;47.356;19.448;2023-04-24T15:44:13;14.68;88.77
68274;SHT30;55104;47.356;19.448;2023-04-24T15:47:16;14.52;89.19
68274;SHT30;55104;47.356;19.448;2023-04-24T15:50:18;14.46;88.81
68274;SHT30;55104;47.356;19.448;2023-04-24T15:53:22;14.41;89.22
68274;SHT30;55104;47.356;19.448;2023-04-24T15:56:24;14.42;88.85
68274;SHT30;55104;47.356;19.448;2023-04-24T15:59:26;14.46;88.62
68274;SHT30;55104;47.356;19.448;2023-04-24T16:02:30;14.42;88.51
68274;SHT30;55104;47.356;19.448;2023-04-24T16:05:33;14.42;89.19
68274;SHT30;55104;47.356;19.448;2023-04-24T16:08:35;14.42;89.09
68274;SHT30;55104;47.356;19.448;2023-04-24T16:11:37;14.43;89.07
68274;SHT30;55104;47.356;19.448;2023-04-24T16:14:40;14.32;89.34
68274;SHT30;55104;47.356;19.448;2023-04-24T16:17:42;14.41;89.88
68274;SHT30;55104;47.356;19.448;2023-04-24T16:20:45;14.38;89.63
68274;SHT30;55104;47.356;19.448;2023-04-24T16:23:48;14.45;89.86
68274;SHT30;55104;47.356;19.448;2023-04-24T16:26:51;14.51;90.34
68274;SHT30;55104;47.356;19.448;2023-04-24T16:29:53;14.55;90.11
68274;SHT30;55104;47.356;19.448;2023-04-24T16:32:57;14.56;90.02
68274;SHT30;55104;47.356;19.448;2023-04-24T16:36:00;14.62;90.00
68274;SHT30;55104;47.356;19.448;2023-04-24T16:39:02;14.62;89.96
68274;SHT30;55104;47.356;19.448;2023-04-24T16:42:06;14.69;89.86
68274;SHT30;55104;47.356;19.448;2023-04-24T16:45:08;14.69;89.42
68274;SHT30;55104;47.356;19.448;2023-04-24T16:48:11;14.73;89.47
68274;SHT30;55104;47.356;19.448;2023-04-24T16:51:13;14.76;89.49
68274;SHT30;55104;47.356;19.448;2023-04-24T16:54:15;14.79;89.35
68274;SHT30;55104;47.356;19.448;2023-04-24T16:57:17;14.80;89.52
68274;SHT30;55104;47.356;19.448;2023-04-24T17:00:19;14.70;90.22
68274;SHT30;55104;47.356;19.448;2023-04-24T17:03:22;14.69;89.89
68274;SHT30;55104;47.356;19.448;2023-04-24T17:06:24;14.61;89.17
68274;SHT30;55104;47.356;19.448;2023-04-24T17:09:27;14.48;88.40
68274;SHT30;55104;47.356;19.448;2023-04-24T17:12:29;14.45;87.69
68274;SHT30;55104;47.356;19.448;2023-04-24T17:15:32;14.28;88.34
68274;SHT30;55104;47.356;19.448;2023-04-24T17:18:34;14.10;89.71
68274;SHT30;55104;47.356;19.448;2023-04-24T17:21:36;14.14;89.13
68274;SHT30;55104;47.356;19.448;2023-04-24T17:24:38;14.03;89.63
68274;SHT30;55104;47.356;19.448;2023-04-24T17:27:41;13.94;89.92
68274;SHT30;55104;47.356;19.448;2023-04-24T17:30:43;13.79;91.42
68274;SHT30;55104;47.356;19.448;2023-04-24T17:33:45;13.77;91.78
68274;SHT30;55104;47.356;19.448;2023-04-24T17:36:47;13.71;91.97
68274;SHT30;55104;47.356;19.448;2023-04-24T17:39:49;13.65;92.11
68274;SHT30;55104;47.356;19.448;2023-04-24T17:42:52;13.60;92.84
68274;SHT30;55104;47.356;19.448;2023-04-24T17:45:54;13.55;92.77
68274;SHT30;55104;47.356;19.448;2023-04-24T17:48:57;13.52;92.55
68274;SHT30;55104;47.356;19.448;2023-04-24T17:51:59;13.46;93.02
68274;SHT30;55104;47.356;19.448;2023-04-24T17:55:01;13.45;93.34
68274;SHT30;55104;47.356;19.448;2023-04-24T17:58:04;13.43;93.75
68274;SHT30;55104;47.356;19.448;2023-04-24T18:01:06;13.42;94.00
68274;SHT30;55104;47.356;19.448;2023-04-24T18:04:09;13.35;94.51
68274;SHT30;55104;47.356;19.448;2023-04-24T18:07:12;13.38;94.40
68274;SHT30;55104;47.356;19.448;2023-04-24T18:10:14;13.38;94.13
68274;SHT30;55104;47.356;19.448;2023-04-24T18:13:16;13.35;94.07
68274;SHT30;55104;47.356;19.448;2023-04-24T18:16:18;13.34;94.33
68274;SHT30;55104;47.356;19.448;2023-04-24T18:19:20;13.34;94.56
68274;SHT30;55104;47.356;19.448;2023-04-24T18:22:22;13.32;94.45
68274;SHT30;55104;47.356;19.448;2023-04-24T18:25:24;13.25;94.59
68274;SHT30;55104;47.356;19.448;2023-04-24T18:28:27;13.26;94.54
68274;SHT30;55104;47.356;19.448;2023-04-24T18:31:32;13.24;94.84
68274;SHT30;55104;47.356;19.448;2023-04-24T18:34:34;13.19;94.70
68274;SHT30;55104;47.356;19.448;2023-04-24T18:37:36;13.12;95.28
68274;SHT30;55104;47.356;19.448;2023-04-24T18:40:39;13.14;95.04
68274;SHT30;55104;47.356;19.448;2023-04-24T18:43:41;13.16;94.88
68274;SHT30;55104;47.356;19.448;2023-04-24T18:46:43;13.21;94.82
68274;SHT30;55104;47.356;19.448;2023-04-24T18:49:45;13.18;94.81
68274;SHT30;55104;47.356;19.448;2023-04-24T18:52:47;13.16;95.26
68274;SHT30;55104;47.356;19.448;2023-04-24T18:55:49;13.19;95.29
68274;SHT30;55104;47.356;19.448;2023-04-24T18:58:52;13.21;95.07
68274;SHT30;55104;47.356;19.448;2023-04-24T19:01:56;13.21;95.08
68274;SHT30;55104;47.356;19.448;2023-04-24T19:04:58;13.35;94.91
68274;SHT30;55104;47.356;19.448;2023-04-24T19:08:00;13.22;94.87
68274;SHT30;55104;47.356;19.448;2023-04-24T19:11:03;13.15;95.13
68274;SHT30;55104;47.356;19.448;2023-04-24T19:14:05;13.11;95.10